Time;durP1;ratioP1;P1;durP2;ratioP2;P2;SDS_P1;SDS_P2;PMS_P1;PMS_P2;Temp;Humidity;BMP_temperature;BMP_pressure;BME280_temperature;BME280_humidity;BME280_pressure;Samples;Min_cycle;Max_cycle;Signal;HPM_P1;HPM_P2
2021/12/16 00:01:58;;;;;;;26.92;12.65;;;;;;;;;;6210260;23;20021;-88
2021/12/16 00:09:48;;;;;;;22.48;11.30;;;;;;;;;;6210416;23;20343;-88
2021/12/16 00:34:01;;;;;;;22.95;12.60;;;;;;;;;;6209598;23;20481;-87
2021/12/16 00:36:33;;;;;;;28.80;12.77;;;;;;;;;;6209412;23;20027;-87
2021/12/16 00:38:59;;;;;;;23.52;12.68;;;;;;;;;;6184445;23;20075;-87
2021/12/16 00:41:26;;;;;;;24.30;12.50;;;;;;;;;;6209492;23;20426;-87
2021/12/16 00:43:59;;;;;;;20.45;12.27;;;;;;;;;;6209570;23;20401;-87
2021/12/16 00:46:53;;;;;;;24.27;12.32;;;;;;;;;;6209630;23;20023;-88
2021/12/16 00:49:31;;;;;;;26.60;12.15;;;;;;;;;;6209072;23;20244;-88
2021/12/16 00:55:11;;;;;;;23.58;11.85;;;;;;;;;;6123297;23;20069;-88
2021/12/16 00:57:38;;;;;;;24.30;13.55;;;;;;;;;;6197844;23;20030;-87
2021/12/16 01:00:06;;;;;;;25.50;13.48;;;;;;;;;;6210931;23;20461;-88
2021/12/16 01:35:49;;;;;;;25.98;14.38;;;;;;;;;;6209204;23;20013;-88
2021/12/16 01:46:47;;;;;;;22.90;14.10;;;;;;;;;;6208902;23;20048;-87
2021/12/16 01:51:37;;;;;;;26.98;15.23;;;;;;;;;;6208682;23;20302;-88
2021/12/16 01:54:38;;;;;;;22.80;13.27;;;;;;;;;;6208825;23;20257;-88
2021/12/16 01:57:15;;;;;;;23.85;13.50;;;;;;;;;;6208776;23;20213;-88
2021/12/16 01:59:45;;;;;;;25.35;14.80;;;;;;;;;;6208636;23;20047;-88
2021/12/16 02:02:24;;;;;;;23.25;13.85;;;;;;;;;;6208832;23;20024;-88
2021/12/16 02:10:10;;;;;;;26.38;14.77;;;;;;;;;;6208771;23;20078;-88
2021/12/16 02:29:39;;;;;;;28.48;14.63;;;;;;;;;;6208821;23;20515;-88
2021/12/16 02:32:26;;;;;;;27.83;15.38;;;;;;;;;;6208675;23;20052;-88
2021/12/16 02:37:32;;;;;;;26.35;15.20;;;;;;;;;;6208108;23;20027;-88
2021/12/16 02:39:59;;;;;;;24.88;15.55;;;;;;;;;;6208875;23;20024;-88
2021/12/16 02:42:35;;;;;;;27.55;15.50;;;;;;;;;;6183214;23;20017;-88
2021/12/16 02:50:16;;;;;;;26.45;14.75;;;;;;;;;;6208675;23;20095;-88
2021/12/16 02:52:43;;;;;;;28.65;15.57;;;;;;;;;;6208367;23;20342;-88
2021/12/16 02:55:10;;;;;;;27.88;15.43;;;;;;;;;;6209885;23;20111;-88
2021/12/16 02:57:45;;;;;;;24.33;14.85;;;;;;;;;;6208379;23;20013;-89
2021/12/16 03:00:14;;;;;;;28.15;15.43;;;;;;;;;;6208323;23;20019;-88
2021/12/16 03:02:41;;;;;;;30.70;16.50;;;;;;;;;;6183344;23;20020;-89
2021/12/16 03:05:09;;;;;;;25.20;14.85;;;;;;;;;;6208318;23;20016;-89
2021/12/16 03:07:35;;;;;;;27.45;15.90;;;;;;;;;;6208812;23;20009;-88
2021/12/16 03:12:51;;;;;;;27.77;15.63;;;;;;;;;;6208232;23;20386;-88
2021/12/16 03:15:43;;;;;;;26.45;15.55;;;;;;;;;;6208260;23;20009;-89
2021/12/16 03:18:22;;;;;;;24.50;14.73;;;;;;;;;;6210351;23;20056;-89
2021/12/16 03:20:56;;;;;;;28.17;15.35;;;;;;;;;;6211474;23;20075;-87
2021/12/16 03:38:50;;;;;;;26.45;15.98;;;;;;;;;;6210634;23;20436;-88
2021/12/16 03:41:16;;;;;;;34.22;16.40;;;;;;;;;;6210449;23;20042;-88
2021/12/16 03:43:43;;;;;;;28.95;15.57;;;;;;;;;;6210330;23;20164;-89
2021/12/16 03:48:59;;;;;;;27.35;16.38;;;;;;;;;;6210866;23;20020;-88
2021/12/16 03:51:39;;;;;;;28.65;17.55;;;;;;;;;;6211109;23;20013;-88
2021/12/16 03:54:16;;;;;;;26.80;15.65;;;;;;;;;;6211539;23;20113;-89
2021/12/16 03:56:43;;;;;;;30.67;16.38;;;;;;;;;;6185777;23;20442;-88
2021/12/16 03:59:10;;;;;;;27.27;16.73;;;;;;;;;;6211966;23;20021;-88
2021/12/16 04:01:36;;;;;;;32.08;17.95;;;;;;;;;;6211673;23;20035;-88
2021/12/16 04:04:03;;;;;;;31.45;16.98;;;;;;;;;;6211039;23;20017;-89
2021/12/16 04:06:30;;;;;;;29.88;17.75;;;;;;;;;;6210513;23;20421;-89
2021/12/16 04:08:57;;;;;;;32.67;17.80;;;;;;;;;;6210632;23;20381;-89
2021/12/16 04:11:25;;;;;;;30.25;17.70;;;;;;;;;;6210761;23;20016;-88
2021/12/16 04:13:59;;;;;;;31.73;18.75;;;;;;;;;;6210166;23;20322;-88
2021/12/16 04:16:25;;;;;;;29.13;17.80;;;;;;;;;;6185690;23;20017;-88
2021/12/16 04:18:51;;;;;;;35.05;18.92;;;;;;;;;;6210934;23;20024;-88
2021/12/16 04:21:19;;;;;;;30.67;17.95;;;;;;;;;;6210412;23;20071;-88
2021/12/16 04:23:45;;;;;;;30.52;18.48;;;;;;;;;;6210076;23;20017;-88
2021/12/16 04:26:11;;;;;;;29.88;18.08;;;;;;;;;;6209915;23;20127;-88
2021/12/16 04:28:38;;;;;;;29.77;17.85;;;;;;;;;;6209919;23;20075;-89
2021/12/16 04:31:04;;;;;;;33.83;18.83;;;;;;;;;;6209957;23;20058;-88
2021/12/16 04:33:30;;;;;;;32.40;18.92;;;;;;;;;;6209940;23;20095;-88
2021/12/16 04:35:56;;;;;;;32.38;19.83;;;;;;;;;;6209954;23;20016;-88
2021/12/16 04:38:22;;;;;;;35.85;20.55;;;;;;;;;;6210228;23;20362;-88
2021/12/16 04:40:49;;;;;;;33.65;20.65;;;;;;;;;;6185024;23;20020;-89
2021/12/16 04:43:21;;;;;;;31.50;18.77;;;;;;;;;;6209727;23;20095;-89
2021/12/16 04:45:48;;;;;;;34.10;18.80;;;;;;;;;;6184876;23;20048;-88
2021/12/16 04:48:15;;;;;;;32.90;18.92;;;;;;;;;;6210119;23;20015;-89
2021/12/16 04:50:41;;;;;;;36.25;21.00;;;;;;;;;;6209516;23;20009;-89
2021/12/16 04:53:07;;;;;;;34.83;19.95;;;;;;;;;;6209996;23;20052;-89
2021/12/16 04:55:33;;;;;;;32.25;19.00;;;;;;;;;;6209667;23;20013;-89
2021/12/16 04:57:59;;;;;;;33.45;19.88;;;;;;;;;;6209880;23;20070;-89
2021/12/16 05:00:26;;;;;;;32.95;18.38;;;;;;;;;;6209860;23;20442;-89
2021/12/16 05:02:53;;;;;;;29.35;17.50;;;;;;;;;;6209946;23;20510;-89
2021/12/16 05:05:20;;;;;;;32.17;19.48;;;;;;;;;;6209717;23;20508;-89
2021/12/16 05:07:47;;;;;;;32.83;20.05;;;;;;;;;;6209617;23;20013;-88
2021/12/16 05:10:14;;;;;;;37.42;21.35;;;;;;;;;;6209752;23;20484;-88
2021/12/16 05:12:42;;;;;;;36.72;20.48;;;;;;;;;;6209806;23;20020;-89
2021/12/16 05:15:10;;;;;;;28.90;17.77;;;;;;;;;;6209621;23;20075;-88
2021/12/16 05:17:42;;;;;;;26.70;16.60;;;;;;;;;;6209639;23;20012;-88
2021/12/16 05:20:11;;;;;;;28.17;16.67;;;;;;;;;;6209641;23;20017;-89
2021/12/16 05:25:37;;;;;;;29.45;19.15;;;;;;;;;;6208856;23;20024;-89
2021/12/16 05:28:04;;;;;;;33.00;19.33;;;;;;;;;;6209627;23;20473;-89
2021/12/16 05:30:30;;;;;;;35.55;21.35;;;;;;;;;;6209247;23;20260;-89
2021/12/16 05:32:57;;;;;;;35.20;20.58;;;;;;;;;;6209778;23;20036;-89
2021/12/16 05:35:23;;;;;;;34.83;20.23;;;;;;;;;;6210094;23;20016;-87
2021/12/16 05:37:50;;;;;;;35.65;19.25;;;;;;;;;;6208951;23;20067;-88
2021/12/16 05:40:17;;;;;;;40.72;22.60;;;;;;;;;;6208825;23;20107;-88
2021/12/16 05:42:43;;;;;;;40.28;23.50;;;;;;;;;;6183608;23;20019;-88
2021/12/16 05:45:10;;;;;;;46.13;25.25;;;;;;;;;;6208894;23;20508;-88
2021/12/16 05:47:36;;;;;;;45.20;25.08;;;;;;;;;;6210272;23;20527;-88
2021/12/16 05:50:03;;;;;;;43.17;25.00;;;;;;;;;;6208155;23;20072;-88
2021/12/16 05:52:29;;;;;;;40.65;24.33;;;;;;;;;;6209023;23;20009;-88
2021/12/16 05:54:55;;;;;;;46.00;24.52;;;;;;;;;;6208965;23;20146;-88
2021/12/16 05:57:21;;;;;;;42.10;23.88;;;;;;;;;;6208720;23;20016;-87
2021/12/16 05:59:47;;;;;;;43.88;25.17;;;;;;;;;;6208868;23;20092;-88
2021/12/16 06:02:13;;;;;;;40.83;22.23;;;;;;;;;;6209277;23;20052;-88
2021/12/16 06:04:39;;;;;;;42.40;22.63;;;;;;;;;;6209458;23;20048;-88
2021/12/16 06:07:06;;;;;;;40.33;23.20;;;;;;;;;;6208695;23;20043;-87
2021/12/16 06:09:32;;;;;;;41.67;24.67;;;;;;;;;;6208797;23;20015;-88
2021/12/16 06:11:58;;;;;;;40.88;24.75;;;;;;;;;;6183578;23;20013;-88
2021/12/16 06:14:39;;;;;;;42.95;23.25;;;;;;;;;;6208635;23;20021;-88
2021/12/16 06:27:54;;;;;;;42.40;23.73;;;;;;;;;;6207018;23;20013;-88
2021/12/16 06:30:26;;;;;;;40.00;23.67;;;;;;;;;;6208631;23;20078;-87
2021/12/16 06:32:52;;;;;;;46.35;24.50;;;;;;;;;;6208778;23;20008;-87
2021/12/16 06:35:19;;;;;;;40.67;23.67;;;;;;;;;;6207964;23;20276;-87
2021/12/16 06:37:45;;;;;;;39.67;23.33;;;;;;;;;;6208087;23;20143;-88
2021/12/16 06:40:11;;;;;;;40.40;22.45;;;;;;;;;;6208073;23;20008;-87
2021/12/16 06:42:40;;;;;;;39.58;22.88;;;;;;;;;;6182772;23;20020;-87
2021/12/16 06:45:11;;;;;;;42.17;23.88;;;;;;;;;;6206949;23;20140;-87
2021/12/16 06:47:48;;;;;;;35.97;22.15;;;;;;;;;;6206913;23;20012;-87
2021/12/16 06:50:25;;;;;;;49.17;26.58;;;;;;;;;;6207590;23;20087;-88
2021/12/16 06:52:54;;;;;;;36.25;21.60;;;;;;;;;;6207694;23;20073;-87
2021/12/16 06:55:39;;;;;;;37.30;22.63;;;;;;;;;;6208135;23;20468;-89
2021/12/16 06:58:26;;;;;;;37.60;22.70;;;;;;;;;;6209527;23;20331;-88
2021/12/16 07:01:03;;;;;;;36.42;21.38;;;;;;;;;;6210149;23;20013;-88
2021/12/16 07:03:39;;;;;;;36.08;19.58;;;;;;;;;;6209599;23;20090;-88
2021/12/16 07:06:06;;;;;;;34.10;19.15;;;;;;;;;;6209572;23;20023;-88
2021/12/16 07:08:32;;;;;;;40.20;22.85;;;;;;;;;;6184614;23;20461;-87
2021/12/16 07:10:58;;;;;;;41.30;22.60;;;;;;;;;;6208826;23;20084;-88
2021/12/16 07:13:31;;;;;;;43.00;22.67;;;;;;;;;;6209414;23;20047;-88
2021/12/16 07:15:57;;;;;;;38.20;20.25;;;;;;;;;;6209663;23;20020;-88
2021/12/16 07:18:23;;;;;;;38.05;22.02;;;;;;;;;;6209269;23;20489;-88
2021/12/16 07:20:49;;;;;;;43.00;23.55;;;;;;;;;;6212218;23;20363;-88
2021/12/16 07:23:15;;;;;;;39.17;22.05;;;;;;;;;;6212813;23;20039;-88
2021/12/16 07:25:41;;;;;;;41.00;22.38;;;;;;;;;;6211418;23;20041;-88
2021/12/16 07:28:09;;;;;;;40.63;21.42;;;;;;;;;;6211244;23;20470;-88
2021/12/16 07:30:37;;;;;;;48.45;23.70;;;;;;;;;;6211919;23;20013;-88
2021/12/16 07:33:04;;;;;;;41.00;22.83;;;;;;;;;;6212462;23;20017;-88
2021/12/16 07:35:30;;;;;;;31.02;20.02;;;;;;;;;;6212617;23;20073;-88
2021/12/16 07:37:57;;;;;;;36.58;19.67;;;;;;;;;;6212186;23;20378;-88
2021/12/16 07:40:25;;;;;;;35.63;20.05;;;;;;;;;;6212414;23;20020;-87
2021/12/16 07:45:35;;;;;;;33.75;19.90;;;;;;;;;;6209523;23;20017;-87
2021/12/16 07:48:01;;;;;;;33.90;19.02;;;;;;;;;;6209018;23;20040;-87
2021/12/16 07:50:27;;;;;;;31.65;19.08;;;;;;;;;;6208663;23;20020;-87
2021/12/16 07:52:53;;;;;;;26.92;16.52;;;;;;;;;;6208825;23;20013;-87
2021/12/16 07:55:20;;;;;;;26.58;17.05;;;;;;;;;;6208756;23;20354;-87
2021/12/16 07:57:46;;;;;;;31.90;17.38;;;;;;;;;;6185552;23;20017;-89
2021/12/16 08:00:17;;;;;;;28.60;17.83;;;;;;;;;;6212651;23;20012;-88
2021/12/16 08:02:43;;;;;;;30.55;17.35;;;;;;;;;;6187847;23;20029;-87
2021/12/16 08:05:10;;;;;;;34.22;17.80;;;;;;;;;;6214267;23;20350;-88
2021/12/16 08:07:37;;;;;;;25.90;15.57;;;;;;;;;;6214823;23;20020;-88
2021/12/16 08:10:04;;;;;;;27.45;16.63;;;;;;;;;;6214492;23;20012;-88
2021/12/16 08:12:30;;;;;;;33.47;20.70;;;;;;;;;;6188793;23;20021;-88
2021/12/16 08:14:56;;;;;;;31.70;19.85;;;;;;;;;;6213979;23;20016;-88
2021/12/16 08:17:22;;;;;;;40.28;21.15;;;;;;;;;;6188938;23;20346;-87
2021/12/16 08:19:48;;;;;;;45.05;25.77;;;;;;;;;;6212733;23;20096;-87
2021/12/16 08:22:14;;;;;;;52.22;32.35;;;;;;;;;;6213119;23;20044;-87
2021/12/16 08:24:40;;;;;;;43.35;22.13;;;;;;;;;;6212135;23;20232;-87
2021/12/16 08:27:07;;;;;;;34.53;19.48;;;;;;;;;;6187245;23;20013;-88
2021/12/16 08:29:33;;;;;;;35.83;20.95;;;;;;;;;;6213055;23;20017;-88
2021/12/16 08:31:59;;;;;;;37.35;21.50;;;;;;;;;;6213438;23;20051;-88
2021/12/16 08:34:27;;;;;;;40.10;21.60;;;;;;;;;;6187834;23;20017;-87
2021/12/16 08:36:53;;;;;;;43.97;24.13;;;;;;;;;;6213089;23;20086;-88
2021/12/16 08:39:19;;;;;;;52.85;25.67;;;;;;;;;;6212051;23;20027;-87
2021/12/16 08:41:48;;;;;;;55.17;28.73;;;;;;;;;;6185889;23;20079;-87
2021/12/16 08:44:14;;;;;;;60.03;28.85;;;;;;;;;;6211384;23;20048;-87
2021/12/16 08:46:43;;;;;;;67.82;32.08;;;;;;;;;;6211999;23;20044;-88
2021/12/16 08:49:09;;;;;;;58.15;30.23;;;;;;;;;;6212453;23;20013;-87
2021/12/16 08:51:39;;;;;;;70.82;35.22;;;;;;;;;;6212439;23;20016;-87
2021/12/16 08:54:05;;;;;;;96.32;49.47;;;;;;;;;;6212422;23;20382;-88
2021/12/16 08:56:31;;;;;;;85.45;40.95;;;;;;;;;;6212990;23;20016;-88
2021/12/16 08:58:59;;;;;;;87.75;39.65;;;;;;;;;;6211845;23;20378;-88
2021/12/16 09:01:27;;;;;;;84.53;38.90;;;;;;;;;;6184019;23;20027;-86
2021/12/16 09:03:53;;;;;;;93.28;38.50;;;;;;;;;;6183545;23;20013;-86
2021/12/16 09:06:19;;;;;;;83.47;39.38;;;;;;;;;;6209506;23;20012;-87
2021/12/16 09:08:46;;;;;;;88.95;40.50;;;;;;;;;;6209473;23;20004;-86
2021/12/16 09:11:17;;;;;;;86.38;39.72;;;;;;;;;;6186300;23;20009;-88
2021/12/16 09:13:43;;;;;;;85.53;39.72;;;;;;;;;;6214211;23;20429;-88
2021/12/16 09:16:11;;;;;;;90.18;40.70;;;;;;;;;;6189653;23;20442;-88
2021/12/16 09:18:41;;;;;;;92.22;41.28;;;;;;;;;;6214532;23;20020;-88
2021/12/16 09:21:08;;;;;;;92.13;41.88;;;;;;;;;;6213932;23;20017;-87
2021/12/16 09:23:34;;;;;;;94.15;41.30;;;;;;;;;;6213337;23;20028;-87
2021/12/16 09:26:00;;;;;;;98.63;40.38;;;;;;;;;;6214456;23;20086;-88
2021/12/16 09:28:27;;;;;;;119.47;43.30;;;;;;;;;;6214568;23;20008;-88
2021/12/16 09:30:53;;;;;;;98.82;41.50;;;;;;;;;;6214180;23;20063;-88
2021/12/16 09:33:22;;;;;;;92.13;40.42;;;;;;;;;;6214174;23;20012;-87
2021/12/16 09:35:50;;;;;;;87.65;40.60;;;;;;;;;;6211756;23;20466;-87
2021/12/16 09:38:17;;;;;;;114.53;44.83;;;;;;;;;;6210338;23;20020;-88
2021/12/16 09:40:49;;;;;;;88.82;39.67;;;;;;;;;;6209553;23;20024;-87
2021/12/16 09:43:15;;;;;;;104.22;42.78;;;;;;;;;;6209379;23;20012;-87
2021/12/16 09:45:42;;;;;;;93.72;39.33;;;;;;;;;;6209609;23;20024;-87
2021/12/16 09:48:08;;;;;;;95.53;40.47;;;;;;;;;;6210879;23;20361;-88
2021/12/16 09:50:34;;;;;;;82.63;35.95;;;;;;;;;;6211859;23;20091;-89
2021/12/16 09:53:01;;;;;;;81.95;36.30;;;;;;;;;;6213864;23;20016;-89
2021/12/16 09:55:28;;;;;;;85.43;39.03;;;;;;;;;;6213656;23;20177;-88
2021/12/16 09:57:54;;;;;;;145.35;47.13;;;;;;;;;;6213586;23;20013;-88
2021/12/16 10:00:22;;;;;;;200.63;54.13;;;;;;;;;;6213472;23;20024;-88
2021/12/16 10:02:49;;;;;;;103.88;41.17;;;;;;;;;;6213390;23;20506;-89
2021/12/16 10:05:16;;;;;;;88.40;37.00;;;;;;;;;;6214360;23;20024;-89
2021/12/16 10:07:42;;;;;;;116.57;40.58;;;;;;;;;;6213181;23;20013;-89
2021/12/16 10:10:11;;;;;;;144.18;40.72;;;;;;;;;;6212681;23;20158;-89
2021/12/16 10:12:41;;;;;;;109.85;39.83;;;;;;;;;;6213796;23;20013;-89
2021/12/16 10:17:23;;;;;;;139.85;43.78;;;;;;;;;;6213933;23;20092;-89
2021/12/16 10:17:55;;;;;;;93.80;36.08;;;;;;;;;;6213497;23;20024;-88
2021/12/16 10:20:42;;;;;;;87.88;37.88;;;;;;;;;;6188415;23;20044;-89
2021/12/16 10:23:09;;;;;;;89.13;34.63;;;;;;;;;;6213068;23;20017;-89
2021/12/16 10:25:43;;;;;;;106.88;37.38;;;;;;;;;;6213732;23;20013;-89
2021/12/16 10:28:12;;;;;;;95.43;36.95;;;;;;;;;;6213994;23;20020;-89
2021/12/16 10:30:40;;;;;;;108.90;39.22;;;;;;;;;;6213257;23;20095;-89
2021/12/16 10:33:30;;;;;;;251.23;56.78;;;;;;;;;;6212992;23;20012;-88
2021/12/16 10:36:08;;;;;;;83.68;34.60;;;;;;;;;;6170790;23;20327;-88
2021/12/16 10:38:40;;;;;;;152.00;44.28;;;;;;;;;;6210353;23;20454;-87
2021/12/16 10:41:07;;;;;;;130.52;42.05;;;;;;;;;;6212032;23;20012;-87
2021/12/16 10:43:33;;;;;;;86.45;33.97;;;;;;;;;;6211396;23;20354;-87
2021/12/16 10:46:05;;;;;;;94.47;32.75;;;;;;;;;;6211881;23;20461;-87
2021/12/16 10:48:36;;;;;;;103.88;32.42;;;;;;;;;;6211897;23;20044;-88
2021/12/16 10:51:02;;;;;;;65.68;28.23;;;;;;;;;;6212855;23;20106;-88
2021/12/16 10:53:46;;;;;;;86.75;30.52;;;;;;;;;;6212683;23;20017;-87
2021/12/16 10:56:13;;;;;;;61.05;27.77;;;;;;;;;;6209943;23;20021;-87
2021/12/16 10:58:48;;;;;;;130.77;37.40;;;;;;;;;;6208571;23;20466;-87
2021/12/16 11:01:34;;;;;;;86.05;32.92;;;;;;;;;;6208970;23;20017;-87
2021/12/16 11:04:00;;;;;;;109.85;35.97;;;;;;;;;;6209093;23;20454;-87
2021/12/16 11:06:27;;;;;;;155.77;38.83;;;;;;;;;;6208389;23;20020;-87
2021/12/16 11:08:53;;;;;;;87.10;32.67;;;;;;;;;;6206701;23;20074;-87
2021/12/16 11:11:29;;;;;;;143.07;38.90;;;;;;;;;;6182769;23;20228;-87
2021/12/16 11:14:03;;;;;;;61.70;30.48;;;;;;;;;;6208165;23;20022;-87
2021/12/16 11:16:30;;;;;;;89.72;33.22;;;;;;;;;;6209365;23;20016;-87
2021/12/16 11:18:56;;;;;;;214.38;47.47;;;;;;;;;;6208156;23;20044;-87
2021/12/16 11:21:22;;;;;;;108.15;34.17;;;;;;;;;;6208673;23;20023;-87
2021/12/16 11:23:50;;;;;;;113.03;35.90;;;;;;;;;;6208059;23;20017;-88
2021/12/16 11:26:21;;;;;;;138.60;35.55;;;;;;;;;;6208672;23;20009;-88
2021/12/16 11:28:48;;;;;;;95.88;34.20;;;;;;;;;;6210934;23;20015;-89
2021/12/16 11:31:14;;;;;;;135.45;36.88;;;;;;;;;;6212572;23;20012;-88
2021/12/16 11:33:44;;;;;;;125.55;37.17;;;;;;;;;;6211518;23;20079;-88
2021/12/16 11:36:10;;;;;;;235.20;48.05;;;;;;;;;;6212648;23;20405;-87
2021/12/16 11:38:54;;;;;;;141.63;38.22;;;;;;;;;;6215125;23;20025;-88
2021/12/16 11:41:25;;;;;;;72.75;29.75;;;;;;;;;;6216033;23;20349;-88
2021/12/16 11:43:57;;;;;;;103.68;32.80;;;;;;;;;;6215615;23;20488;-88
2021/12/16 11:46:25;;;;;;;69.75;28.48;;;;;;;;;;6216070;23;20012;-88
2021/12/16 11:48:54;;;;;;;85.00;31.58;;;;;;;;;;6190372;23;20012;-88
2021/12/16 11:51:23;;;;;;;84.43;30.38;;;;;;;;;;6215424;23;20012;-88
2021/12/16 11:53:51;;;;;;;66.07;29.65;;;;;;;;;;6215124;23;20016;-88
2021/12/16 11:56:18;;;;;;;105.28;37.05;;;;;;;;;;6215011;23;20059;-88
2021/12/16 11:58:46;;;;;;;86.82;32.42;;;;;;;;;;6215477;23;20023;-88
2021/12/16 12:01:20;;;;;;;70.00;30.17;;;;;;;;;;6215733;23;20027;-88
2021/12/16 12:03:47;;;;;;;62.13;28.73;;;;;;;;;;6190292;23;20019;-88
2021/12/16 12:06:20;;;;;;;55.97;27.85;;;;;;;;;;6214646;23;20339;-88
2021/12/16 12:08:47;;;;;;;45.05;25.92;;;;;;;;;;6211421;23;20443;-88
2021/12/16 12:11:16;;;;;;;57.10;28.80;;;;;;;;;;6211368;23;20009;-88
2021/12/16 12:13:47;;;;;;;62.53;28.33;;;;;;;;;;6213666;23;20020;-88
2021/12/16 12:16:16;;;;;;;59.65;27.65;;;;;;;;;;6211563;23;20493;-87
2021/12/16 12:18:42;;;;;;;47.63;25.83;;;;;;;;;;6211807;23;20020;-88
2021/12/16 12:21:27;;;;;;;55.28;28.38;;;;;;;;;;6210267;23;20542;-86
2021/12/16 12:23:56;;;;;;;45.35;24.55;;;;;;;;;;6209024;23;20482;-86
2021/12/16 12:26:23;;;;;;;39.28;22.85;;;;;;;;;;6210334;23;20342;-87
2021/12/16 12:28:50;;;;;;;45.42;24.88;;;;;;;;;;6209928;23;20016;-87
2021/12/16 12:31:17;;;;;;;47.53;24.42;;;;;;;;;;6207969;23;20473;-86
2021/12/16 12:33:43;;;;;;;43.88;23.55;;;;;;;;;;6186323;23;20099;-86
2021/12/16 12:36:09;;;;;;;41.28;24.25;;;;;;;;;;6210649;23;20095;-86
2021/12/16 12:38:36;;;;;;;45.30;24.38;;;;;;;;;;6210233;23;20516;-87
2021/12/16 12:41:04;;;;;;;46.92;23.98;;;;;;;;;;6211063;23;20016;-87
2021/12/16 12:43:33;;;;;;;44.35;23.75;;;;;;;;;;6210188;23;20059;-86
2021/12/16 12:45:59;;;;;;;46.22;24.70;;;;;;;;;;6210105;23;20096;-86
2021/12/16 12:48:25;;;;;;;46.53;25.42;;;;;;;;;;6184774;23;20008;-86
2021/12/16 12:50:53;;;;;;;43.60;23.48;;;;;;;;;;6208933;23;20016;-86
2021/12/16 12:53:25;;;;;;;54.30;25.23;;;;;;;;;;6209658;23;20084;-87
2021/12/16 12:55:54;;;;;;;47.28;25.17;;;;;;;;;;6209842;23;20017;-87
2021/12/16 12:58:22;;;;;;;47.80;23.15;;;;;;;;;;6184903;23;20013;-87
2021/12/16 13:00:50;;;;;;;39.22;22.40;;;;;;;;;;6209736;23;20023;-88
2021/12/16 13:03:23;;;;;;;46.30;24.65;;;;;;;;;;6211164;23;20013;-87
2021/12/16 13:05:53;;;;;;;46.97;24.77;;;;;;;;;;6209901;23;20015;-87
2021/12/16 13:08:24;;;;;;;50.50;25.55;;;;;;;;;;6210194;23;20021;-86
2021/12/16 13:10:50;;;;;;;39.88;21.35;;;;;;;;;;6209517;23;20084;-87
2021/12/16 13:16:57;;;;;;;49.65;24.77;;;;;;;;;;6210011;23;20268;-87
2021/12/16 13:24:46;;;;;;;46.03;22.23;;;;;;;;;;6209371;23;20017;-88
2021/12/16 13:27:26;;;;;;;48.92;22.38;;;;;;;;;;6209233;23;20342;-87
2021/12/16 13:32:39;;;;;;;42.88;19.38;;;;;;;;;;6209013;23;20405;-88
2021/12/16 13:35:31;;;;;;;42.50;18.63;;;;;;;;;;6210941;23;20103;-87
2021/12/16 13:37:58;;;;;;;39.88;17.30;;;;;;;;;;6210113;23;20024;-86
2021/12/16 13:40:25;;;;;;;52.92;18.80;;;;;;;;;;6209198;23;20070;-86
2021/12/16 13:42:58;;;;;;;47.92;17.58;;;;;;;;;;6208250;23;20116;-86
2021/12/16 13:45:35;;;;;;;44.20;17.27;;;;;;;;;;6209020;23;20020;-87
2021/12/16 13:48:13;;;;;;;41.95;17.42;;;;;;;;;;6209314;23;20083;-87
2021/12/16 13:59:29;;;;;;;60.67;20.45;;;;;;;;;;6208172;23;20012;-87
2021/12/16 14:02:00;;;;;;;49.78;18.52;;;;;;;;;;6207621;23;20013;-87
2021/12/16 14:10:10;;;;;;;50.75;19.80;;;;;;;;;;6208492;23;20017;-86
2021/12/16 14:15:44;;;;;;;39.72;17.75;;;;;;;;;;6207976;23;20020;-86
2021/12/16 14:22:55;;;;;;;36.15;17.38;;;;;;;;;;6208138;23;20016;-86
2021/12/16 14:23:03;;;;;;;39.92;18.55;;;;;;;;;;6206445;23;20218;-86
2021/12/16 14:24:18;;;;;;;44.35;19.85;;;;;;;;;;6207883;23;20048;-87
2021/12/16 14:26:51;;;;;;;41.70;18.83;;;;;;;;;;6207793;23;20484;-86
2021/12/16 14:33:12;;;;;;;40.03;18.75;;;;;;;;;;6209383;23;20397;-88
2021/12/16 14:35:27;;;;;;;38.85;18.40;;;;;;;;;;6211899;23;20017;-88
2021/12/16 14:38:14;;;;;;;43.28;18.95;;;;;;;;;;6209868;23;20074;-87
2021/12/16 14:41:42;;;;;;;56.92;21.58;;;;;;;;;;6208919;23;20067;-86
2021/12/16 14:43:56;;;;;;;64.60;22.95;;;;;;;;;;6203722;23;20021;-86
2021/12/16 14:46:27;;;;;;;65.93;23.17;;;;;;;;;;6208519;23;20114;-86
2021/12/16 14:48:53;;;;;;;59.22;23.15;;;;;;;;;;6209677;23;20044;-86
2021/12/16 14:51:19;;;;;;;54.17;22.50;;;;;;;;;;6184617;23;20472;-86
2021/12/16 14:53:47;;;;;;;43.88;20.35;;;;;;;;;;6210441;23;20401;-87
2021/12/16 14:56:13;;;;;;;74.55;25.42;;;;;;;;;;6210381;23;20035;-86
2021/12/16 14:58:40;;;;;;;64.78;23.38;;;;;;;;;;6211492;23;20024;-87
2021/12/16 15:01:12;;;;;;;58.13;23.63;;;;;;;;;;6211924;23;20074;-87
2021/12/16 15:03:41;;;;;;;42.83;19.50;;;;;;;;;;6211639;23;20020;-86
2021/12/16 15:06:09;;;;;;;50.33;21.17;;;;;;;;;;6187607;23;20009;-87
2021/12/16 15:08:56;;;;;;;39.30;18.65;;;;;;;;;;6212237;23;20009;-86
2021/12/16 15:11:33;;;;;;;34.35;17.77;;;;;;;;;;6211598;23;20015;-86
2021/12/16 15:14:05;;;;;;;46.10;19.00;;;;;;;;;;6209478;23;20019;-86
2021/12/16 15:43:39;;;;;;;48.58;20.30;;;;;;;;;;6174864;23;20416;-86
2021/12/16 15:46:06;;;;;;;50.47;20.77;;;;;;;;;;6210109;23;20020;-87
2021/12/16 15:48:32;;;;;;;67.70;23.63;;;;;;;;;;6209298;23;20391;-86
2021/12/16 15:51:03;;;;;;;60.95;24.85;;;;;;;;;;6207325;23;20052;-88
2021/12/16 15:53:31;;;;;;;68.93;24.63;;;;;;;;;;6207286;23;20032;-87
2021/12/16 15:55:59;;;;;;;50.35;21.95;;;;;;;;;;6207607;23;20442;-87
2021/12/16 15:58:30;;;;;;;71.03;25.77;;;;;;;;;;6207841;23;20442;-87
2021/12/16 16:01:03;;;;;;;60.22;23.10;;;;;;;;;;6207682;23;20047;-87
2021/12/16 16:03:30;;;;;;;50.63;22.90;;;;;;;;;;6182034;23;20012;-87
2021/12/16 16:06:00;;;;;;;65.53;24.95;;;;;;;;;;6210275;23;20403;-87
2021/12/16 16:08:28;;;;;;;64.30;24.17;;;;;;;;;;6210826;23;20389;-86
2021/12/16 16:10:59;;;;;;;58.20;21.88;;;;;;;;;;6211017;23;20013;-88
2021/12/16 16:13:27;;;;;;;148.68;63.13;;;;;;;;;;6212495;23;20399;-87
2021/12/16 16:15:55;;;;;;;45.70;20.58;;;;;;;;;;6209748;23;20024;-86
2021/12/16 16:20:59;;;;;;;66.85;24.40;;;;;;;;;;6210416;23;20291;-87
2021/12/16 16:23:27;;;;;;;51.85;21.67;;;;;;;;;;6210504;23;20012;-87
2021/12/16 16:25:54;;;;;;;55.33;23.08;;;;;;;;;;6212487;23;20024;-87
2021/12/16 16:28:25;;;;;;;45.42;20.30;;;;;;;;;;6210409;23;20008;-87
2021/12/16 16:30:52;;;;;;;54.75;20.42;;;;;;;;;;6209771;23;20012;-86
2021/12/16 16:33:20;;;;;;;59.95;21.88;;;;;;;;;;6209348;23;20024;-86
2021/12/16 16:35:55;;;;;;;74.93;23.92;;;;;;;;;;6208039;23;20088;-86
2021/12/16 16:38:24;;;;;;;77.28;25.23;;;;;;;;;;6211411;23;20080;-86
2021/12/16 16:40:51;;;;;;;59.95;24.05;;;;;;;;;;6208468;23;20020;-86
2021/12/16 16:43:17;;;;;;;75.53;24.45;;;;;;;;;;6208020;23;20012;-86
2021/12/16 16:45:44;;;;;;;75.65;25.65;;;;;;;;;;6183906;23;20008;-86
2021/12/16 16:48:27;;;;;;;57.08;22.05;;;;;;;;;;6210826;23;20031;-87
2021/12/16 16:51:11;;;;;;;45.92;20.08;;;;;;;;;;6210892;23;20020;-86
2021/12/16 16:53:45;;;;;;;75.15;26.77;;;;;;;;;;6210683;23;20012;-86
2021/12/16 16:56:11;;;;;;;63.67;22.85;;;;;;;;;;6210581;23;20358;-86
2021/12/16 16:58:37;;;;;;;51.35;21.33;;;;;;;;;;6210226;23;20024;-86
2021/12/16 17:01:03;;;;;;;67.68;24.40;;;;;;;;;;6209540;23;20168;-87
2021/12/16 17:03:30;;;;;;;69.15;23.48;;;;;;;;;;6185098;23;20385;-86
2021/12/16 17:06:02;;;;;;;50.65;21.40;;;;;;;;;;6209135;23;20019;-87
2021/12/16 17:08:28;;;;;;;60.85;23.70;;;;;;;;;;6210506;23;20021;-87
2021/12/16 17:11:01;;;;;;;65.97;23.80;;;;;;;;;;6210823;23;20012;-87
2021/12/16 17:13:41;;;;;;;58.55;22.27;;;;;;;;;;6210230;23;20013;-86
2021/12/16 17:18:37;;;;;;;61.47;23.92;;;;;;;;;;6210059;23;20012;-87
2021/12/16 17:21:13;;;;;;;60.95;22.42;;;;;;;;;;6184226;23;20578;-87
2021/12/16 17:23:39;;;;;;;65.68;22.92;;;;;;;;;;6208817;23;20024;-86
2021/12/16 17:26:37;;;;;;;58.15;21.95;;;;;;;;;;6208666;23;20051;-86
2021/12/16 17:29:07;;;;;;;50.50;21.48;;;;;;;;;;6159991;23;20100;-86
2021/12/16 17:31:36;;;;;;;62.58;22.55;;;;;;;;;;6206119;23;20062;-86
2021/12/16 17:34:06;;;;;;;49.20;19.70;;;;;;;;;;6210307;23;20385;-87
2021/12/16 17:36:32;;;;;;;70.07;22.95;;;;;;;;;;6207939;23;20023;-86
2021/12/16 17:39:19;;;;;;;46.40;19.52;;;;;;;;;;6182962;23;20020;-86
2021/12/16 17:41:53;;;;;;;59.88;20.95;;;;;;;;;;6207574;23;20023;-86
2021/12/16 17:44:19;;;;;;;55.13;21.25;;;;;;;;;;6207800;23;20016;-86
2021/12/16 17:46:50;;;;;;;54.42;21.35;;;;;;;;;;6207432;23;20515;-86
2021/12/16 17:49:17;;;;;;;50.95;21.73;;;;;;;;;;6208944;23;20545;-86
2021/12/16 17:51:43;;;;;;;56.67;21.27;;;;;;;;;;6207917;23;20092;-86
2021/12/16 17:54:11;;;;;;;60.97;21.92;;;;;;;;;;6207845;23;20473;-87
2021/12/16 17:56:37;;;;;;;58.30;21.33;;;;;;;;;;6207557;23;20016;-86
2021/12/16 17:59:06;;;;;;;44.78;19.45;;;;;;;;;;6207999;23;20450;-85